Time;durP1;ratioP1;P1;durP2;ratioP2;P2;SDS_P1;SDS_P2;PMS_P1;PMS_P2;Temp;Humidity;BMP_temperature;BMP_pressure;BME280_temperature;BME280_humidity;BME280_pressure;Samples;Min_cycle;Max_cycle;Signal;HPM_P1;HPM_P2
2021/06/23 00:01:11;;;;;;;1.75;1.65;;;15.60;99.90;;;;;;5074156;28;20178;-78
2021/06/23 00:03:37;;;;;;;2.67;1.65;;;15.50;99.90;;;;;;5069341;28;20201;-79
2021/06/23 00:06:02;;;;;;;1.88;1.77;;;15.60;99.90;;;;;;5070314;28;20173;-79
2021/06/23 00:08:28;;;;;;;2.10;1.80;;;15.60;99.90;;;;;;5069189;28;20189;-78
2021/06/23 00:10:53;;;;;;;3.30;1.83;;;15.70;99.90;;;;;;5069613;28;20209;-78
2021/06/23 00:13:20;;;;;;;2.38;1.98;;;15.70;99.90;;;;;;5069542;28;20229;-78
2021/06/23 00:15:46;;;;;;;1.67;1.58;;;15.80;99.90;;;;;;5069683;28;20866;-78
2021/06/23 00:18:11;;;;;;;3.40;1.63;;;15.70;99.90;;;;;;5069064;28;20871;-79
2021/06/23 00:20:37;;;;;;;1.75;1.45;;;15.70;99.90;;;;;;5069475;28;20212;-79
2021/06/23 00:23:03;;;;;;;2.42;1.85;;;15.60;99.90;;;;;;5051546;28;20180;-79
2021/06/23 00:25:30;;;;;;;2.10;1.90;;;15.70;99.90;;;;;;5069881;28;20181;-79
2021/06/23 00:27:55;;;;;;;3.72;2.15;;;15.60;99.90;;;;;;5072044;28;20173;-79
2021/06/23 00:30:21;;;;;;;1.70;1.60;;;15.70;99.90;;;;;;5054854;28;20220;-76
2021/06/23 00:32:48;;;;;;;7.03;2.05;;;15.60;99.90;;;;;;5072144;28;20177;-77
2021/06/23 00:35:14;;;;;;;1.85;1.70;;;15.60;99.90;;;;;;5046683;28;20262;-78
2021/06/23 00:37:40;;;;;;;3.45;1.73;;;15.50;99.90;;;;;;5072598;28;20196;-77
2021/06/23 00:40:08;;;;;;;3.28;1.60;;;15.50;99.90;;;;;;5054964;28;20193;-79
2021/06/23 00:42:34;;;;;;;1.80;1.67;;;15.40;99.90;;;;;;5044228;28;20177;-78
2021/06/23 00:45:10;;;;;;;8.02;2.55;;;15.40;99.90;;;;;;5069961;28;20185;-77
2021/06/23 00:47:36;;;;;;;2.08;1.42;;;15.40;99.90;;;;;;5070853;28;20177;-78
2021/06/23 00:50:06;;;;;;;2.35;1.92;;;15.30;99.90;;;;;;5071137;28;21273;-79
2021/06/23 00:52:33;;;;;;;1.58;1.48;;;15.20;99.90;;;;;;5072055;28;20185;-78
2021/06/23 00:54:59;;;;;;;2.63;1.50;;;15.10;99.90;;;;;;5073741;28;20211;-79
2021/06/23 00:57:24;;;;;;;6.63;2.10;;;15.20;99.90;;;;;;5072395;28;20235;-78
2021/06/23 00:59:54;;;;;;;2.03;1.40;;;15.30;99.90;;;;;;5052937;28;21216;-78
2021/06/23 01:02:20;;;;;;;1.35;1.13;;;15.30;99.90;;;;;;5068833;28;20170;-77
2021/06/23 01:04:48;;;;;;;1.63;1.52;;;15.30;99.90;;;;;;5055406;28;20181;-78
2021/06/23 01:07:16;;;;;;;2.00;1.42;;;15.30;99.90;;;;;;5072960;28;20188;-79
2021/06/23 01:09:42;;;;;;;2.13;1.25;;;15.30;99.90;;;;;;5072614;28;20209;-78
2021/06/23 01:12:23;;;;;;;2.30;1.40;;;15.40;99.90;;;;;;5073426;28;21228;-79
2021/06/23 01:14:52;;;;;;;1.17;1.00;;;15.40;99.90;;;;;;5073101;28;20256;-78
2021/06/23 01:17:19;;;;;;;3.85;1.55;;;15.30;99.90;;;;;;5071244;28;20272;-79
2021/06/23 01:19:45;;;;;;;2.10;1.33;;;15.20;99.90;;;;;;5055037;28;20201;-79
2021/06/23 01:22:13;;;;;;;3.50;1.58;;;15.10;99.90;;;;;;5072858;28;20220;-77
2021/06/23 01:24:41;;;;;;;1.40;1.10;;;15.00;99.90;;;;;;5073005;28;20205;-78
2021/06/23 01:27:07;;;;;;;2.20;1.35;;;15.00;99.90;;;;;;5054849;28;20178;-79
2021/06/23 01:29:33;;;;;;;1.10;1.00;;;15.00;99.90;;;;;;5072652;28;20209;-79
2021/06/23 01:31:58;;;;;;;2.67;1.10;;;15.00;99.90;;;;;;5072080;28;20181;-78
2021/06/23 01:34:24;;;;;;;2.58;1.38;;;15.10;99.90;;;;;;5072505;28;20209;-78
2021/06/23 01:36:50;;;;;;;1.25;1.10;;;15.20;99.90;;;;;;5071211;28;20636;-76
2021/06/23 01:39:15;;;;;;;1.38;1.00;;;15.10;99.90;;;;;;5070256;28;20202;-77
2021/06/23 01:41:41;;;;;;;0.82;0.82;;;15.10;99.90;;;;;;5069960;28;20529;-76
2021/06/23 01:44:06;;;;;;;3.05;1.35;;;15.10;99.90;;;;;;5052164;28;20212;-78
2021/06/23 01:46:32;;;;;;;1.80;1.27;;;15.10;99.90;;;;;;5051982;28;20216;-76
2021/06/23 01:48:58;;;;;;;3.58;1.58;;;15.00;99.90;;;;;;5070246;28;20205;-76
2021/06/23 01:51:24;;;;;;;1.65;1.20;;;15.00;99.90;;;;;;5052128;28;20192;-76
2021/06/23 01:53:49;;;;;;;1.90;1.25;;;14.90;99.90;;;;;;5069165;28;20213;-76
2021/06/23 01:56:15;;;;;;;1.30;1.20;;;14.80;99.90;;;;;;5069649;28;20184;-78
2021/06/23 01:58:43;;;;;;;1.00;0.90;;;14.80;99.90;;;;;;5069640;28;20178;-79
2021/06/23 02:01:08;;;;;;;1.95;1.10;;;14.70;99.90;;;;;;5053589;28;20651;-80
2021/06/23 02:03:34;;;;;;;1.70;1.30;;;14.60;99.90;;;;;;5053648;28;20186;-78
2021/06/23 02:06:07;;;;;;;1.00;1.00;;;14.50;99.90;;;;;;5072152;28;20201;-80
2021/06/23 02:09:00;;;;;;;3.33;1.48;;;14.40;99.90;;;;;;5071966;28;20583;-78
2021/06/23 02:11:28;;;;;;;2.50;1.60;;;14.40;99.90;;;;;;5053244;28;20717;-77
2021/06/23 02:14:09;;;;;;;3.03;0.93;;;14.40;99.90;;;;;;5044080;28;20213;-79
2021/06/23 02:16:38;;;;;;;1.15;1.05;;;14.30;99.90;;;;;;5071352;28;20177;-79
2021/06/23 02:19:06;;;;;;;1.17;1.00;;;14.20;99.90;;;;;;5070335;28;20201;-79
2021/06/23 02:21:35;;;;;;;1.75;1.40;;;14.20;99.90;;;;;;5072174;28;20201;-78
2021/06/23 02:24:01;;;;;;;1.05;0.98;;;14.20;99.90;;;;;;5053734;28;20197;-78
2021/06/23 02:26:27;;;;;;;4.03;1.83;;;14.10;99.90;;;;;;5071499;28;20684;-79
2021/06/23 02:28:53;;;;;;;2.70;1.30;;;14.00;99.90;;;;;;5070989;28;20205;-80
2021/06/23 02:31:19;;;;;;;1.25;1.15;;;14.00;99.90;;;;;;5071882;28;20185;-78
2021/06/23 02:33:46;;;;;;;1.27;1.20;;;14.00;99.90;;;;;;5053426;28;20209;-79
2021/06/23 02:36:11;;;;;;;2.25;1.13;;;14.00;99.90;;;;;;5071410;28;20636;-79
2021/06/23 02:38:37;;;;;;;2.72;1.58;;;14.00;99.90;;;;;;5052412;28;20185;-78
2021/06/23 02:41:03;;;;;;;7.07;1.35;;;14.00;99.90;;;;;;5070876;28;20197;-78
2021/06/23 02:43:29;;;;;;;1.85;1.50;;;14.20;99.90;;;;;;5070958;28;20263;-79
2021/06/23 02:45:55;;;;;;;3.50;1.35;;;14.30;99.90;;;;;;5071647;28;20186;-78
2021/06/23 02:48:24;;;;;;;2.28;1.38;;;14.40;99.90;;;;;;5070072;28;20178;-75
2021/06/23 02:51:02;;;;;;;1.73;1.45;;;14.50;99.90;;;;;;5071395;28;20212;-78
2021/06/23 02:53:29;;;;;;;2.97;1.40;;;14.60;99.90;;;;;;5070102;28;20177;-78
2021/06/23 02:55:56;;;;;;;2.42;1.08;;;14.60;99.90;;;;;;5070203;28;20191;-78
2021/06/23 02:58:22;;;;;;;2.15;1.77;;;14.80;99.90;;;;;;5067884;28;20182;-80
2021/06/23 03:00:47;;;;;;;1.30;1.20;;;14.70;99.90;;;;;;5067025;28;20196;-78
2021/06/23 03:03:13;;;;;;;0.98;0.98;;;14.80;99.90;;;;;;5050507;28;20565;-77
2021/06/23 03:05:39;;;;;;;1.38;1.27;;;14.80;99.90;;;;;;5058088;28;20210;-76
2021/06/23 03:08:06;;;;;;;2.90;1.80;;;14.80;99.90;;;;;;5041893;28;20691;-77
2021/06/23 03:10:31;;;;;;;1.55;1.45;;;14.60;99.90;;;;;;5068710;28;20436;-78
2021/06/23 03:12:57;;;;;;;1.88;1.38;;;14.60;99.90;;;;;;5067754;28;20209;-76
2021/06/23 03:15:23;;;;;;;1.42;1.33;;;14.60;99.90;;;;;;5068343;28;20254;-77
2021/06/23 03:17:48;;;;;;;1.55;1.33;;;14.70;99.90;;;;;;5066870;28;20196;-79
2021/06/23 03:20:15;;;;;;;1.48;1.00;;;14.70;99.90;;;;;;5043443;28;20204;-77
2021/06/23 03:22:40;;;;;;;1.95;1.20;;;14.70;99.90;;;;;;5050016;28;20174;-77
2021/06/23 03:25:06;;;;;;;4.57;1.92;;;14.70;99.90;;;;;;5068515;28;20200;-79
2021/06/23 03:27:32;;;;;;;1.65;1.35;;;14.80;99.90;;;;;;5067358;28;20189;-78
2021/06/23 03:29:58;;;;;;;0.90;0.90;;;14.70;99.90;;;;;;5067711;28;21172;-76
2021/06/23 03:32:23;;;;;;;6.13;1.20;;;14.60;99.90;;;;;;5065857;28;20243;-76
2021/06/23 03:34:49;;;;;;;4.18;1.40;;;14.60;99.90;;;;;;5042622;28;20206;-76
2021/06/23 03:37:15;;;;;;;1.48;1.27;;;14.60;99.90;;;;;;5039493;28;20184;-78
2021/06/23 03:39:41;;;;;;;1.70;1.17;;;14.50;99.90;;;;;;5065312;28;20292;-79
2021/06/23 03:42:07;;;;;;;1.98;1.20;;;14.50;99.90;;;;;;5047771;28;20181;-77
2021/06/23 03:44:33;;;;;;;1.15;1.13;;;14.50;99.90;;;;;;5066363;28;20186;-75
2021/06/23 03:47:01;;;;;;;1.27;1.23;;;14.50;99.90;;;;;;5048300;28;20335;-76
2021/06/23 03:49:27;;;;;;;2.72;1.33;;;14.50;99.90;;;;;;5047730;28;20590;-77
2021/06/23 03:51:55;;;;;;;1.88;1.27;;;14.60;99.90;;;;;;5065356;28;20308;-78
2021/06/23 03:54:20;;;;;;;1.38;1.27;;;14.70;99.90;;;;;;5065789;28;20528;-76
2021/06/23 03:56:46;;;;;;;2.38;1.38;;;14.80;99.90;;;;;;5065968;28;20640;-76
2021/06/23 03:59:12;;;;;;;1.27;1.17;;;14.90;99.90;;;;;;5047083;28;20228;-76
2021/06/23 04:01:38;;;;;;;3.08;1.77;;;15.00;99.90;;;;;;5064886;28;20234;-77
2021/06/23 04:04:03;;;;;;;1.00;1.00;;;15.10;99.90;;;;;;5048054;28;20189;-78
2021/06/23 04:06:29;;;;;;;2.25;1.20;;;15.00;99.90;;;;;;5041242;28;20185;-76
2021/06/23 04:08:55;;;;;;;2.78;1.27;;;15.10;99.90;;;;;;5046848;28;20252;-77
2021/06/23 04:11:20;;;;;;;1.27;0.90;;;15.10;99.90;;;;;;5048162;28;20188;-76
2021/06/23 04:13:46;;;;;;;7.13;2.10;;;14.90;99.90;;;;;;5065386;28;20713;-75
2021/06/23 04:16:12;;;;;;;5.68;1.75;;;14.90;99.90;;;;;;5048815;28;20185;-77
2021/06/23 04:18:38;;;;;;;2.45;1.20;;;14.90;99.90;;;;;;5064700;28;20646;-77
2021/06/23 04:21:04;;;;;;;1.80;1.30;;;15.10;99.90;;;;;;5064903;28;20185;-78
2021/06/23 04:23:30;;;;;;;3.38;1.20;;;15.20;99.90;;;;;;5046765;28;20228;-77
2021/06/23 04:25:55;;;;;;;2.65;1.52;;;15.20;99.90;;;;;;5046725;28;20231;-76
2021/06/23 04:28:21;;;;;;;2.92;1.80;;;15.30;99.90;;;;;;5040642;28;20190;-80
2021/06/23 04:30:46;;;;;;;1.10;1.00;;;15.50;99.90;;;;;;5069353;28;20710;-80
2021/06/23 04:33:12;;;;;;;1.27;1.17;;;15.40;99.90;;;;;;5070039;28;20215;-80
2021/06/23 04:35:38;;;;;;;1.50;1.40;;;15.50;99.90;;;;;;5069676;28;20212;-79
2021/06/23 04:38:04;;;;;;;1.52;1.27;;;15.30;99.90;;;;;;5068831;28;20582;-79
2021/06/23 04:40:29;;;;;;;1.20;1.10;;;15.40;99.90;;;;;;5070113;28;20201;-78
2021/06/23 04:42:55;;;;;;;1.95;1.45;;;15.40;99.90;;;;;;5047822;28;20192;-77
2021/06/23 04:45:21;;;;;;;1.73;1.58;;;15.30;99.90;;;;;;5069576;28;20214;-79
2021/06/23 04:47:46;;;;;;;1.90;1.38;;;15.40;99.90;;;;;;5069291;28;20185;-79
2021/06/23 04:50:12;;;;;;;1.75;1.42;;;15.60;99.90;;;;;;5069840;28;20236;-79
2021/06/23 04:52:38;;;;;;;2.53;1.17;;;15.70;99.90;;;;;;5069527;28;20179;-79
2021/06/23 04:55:05;;;;;;;2.63;1.90;;;15.60;99.90;;;;;;5069758;28;20198;-79
2021/06/23 04:57:30;;;;;;;1.55;1.27;;;15.60;99.90;;;;;;5051389;28;20185;-79
2021/06/23 04:59:56;;;;;;;1.48;1.10;;;15.60;99.90;;;;;;5069099;28;20205;-79
2021/06/23 05:02:22;;;;;;;1.88;1.13;;;15.70;99.90;;;;;;5068300;28;20189;-78
2021/06/23 05:04:48;;;;;;;1.80;1.10;;;15.80;99.90;;;;;;5068428;28;20217;-78
2021/06/23 05:07:14;;;;;;;2.42;1.50;;;15.80;99.90;;;;;;5068439;28;20238;-78
2021/06/23 05:09:40;;;;;;;1.77;1.23;;;15.70;99.90;;;;;;5050064;28;20228;-78
2021/06/23 05:12:07;;;;;;;3.58;1.15;;;15.70;99.90;;;;;;5070173;28;20553;-77
2021/06/23 05:14:33;;;;;;;1.38;1.08;;;15.70;99.90;;;;;;5072096;28;20284;-77
2021/06/23 05:16:59;;;;;;;2.63;1.30;;;15.60;99.90;;;;;;5072331;28;20256;-77
2021/06/23 05:19:24;;;;;;;3.00;1.30;;;15.40;99.90;;;;;;5072418;28;20334;-78
2021/06/23 05:21:50;;;;;;;2.22;1.20;;;15.20;99.90;;;;;;5054216;28;20748;-77
2021/06/23 05:24:17;;;;;;;1.27;0.98;;;15.20;99.90;;;;;;5071986;28;20355;-77
2021/06/23 05:26:43;;;;;;;3.45;1.45;;;15.10;99.90;;;;;;5054002;28;20318;-78
2021/06/23 05:29:09;;;;;;;2.67;1.30;;;15.00;99.90;;;;;;5071049;28;20288;-77
2021/06/23 05:31:35;;;;;;;0.90;0.90;;;15.00;99.90;;;;;;5072180;28;20567;-78
2021/06/23 05:34:01;;;;;;;1.30;1.20;;;15.00;99.90;;;;;;5053460;28;20209;-77
2021/06/23 05:36:27;;;;;;;2.83;1.30;;;15.20;99.90;;;;;;5072111;28;20185;-78
2021/06/23 05:38:53;;;;;;;4.65;1.42;;;15.40;99.90;;;;;;5072112;28;20209;-78
2021/06/23 05:41:19;;;;;;;2.17;1.40;;;15.50;99.90;;;;;;5071780;28;20176;-78
2021/06/23 05:43:44;;;;;;;1.80;1.30;;;15.70;99.90;;;;;;5071670;28;20185;-78
2021/06/23 05:46:10;;;;;;;3.15;1.27;;;15.80;99.90;;;;;;5071774;28;20188;-77
2021/06/23 05:48:36;;;;;;;2.38;1.58;;;15.90;99.90;;;;;;5070878;28;20671;-77
2021/06/23 05:51:01;;;;;;;3.00;1.23;;;16.00;99.90;;;;;;5071658;28;20181;-78
2021/06/23 05:53:30;;;;;;;4.30;1.60;;;15.70;99.90;;;;;;5071427;28;20545;-78
2021/06/23 05:55:55;;;;;;;3.75;1.15;;;15.70;99.90;;;;;;5072340;28;20177;-78
2021/06/23 05:58:24;;;;;;;1.70;1.15;;;15.80;99.90;;;;;;5052794;28;20180;-78
2021/06/23 06:00:50;;;;;;;3.63;1.40;;;15.80;99.90;;;;;;5069501;28;20259;-79
2021/06/23 06:03:16;;;;;;;1.17;1.08;;;15.80;99.90;;;;;;5049255;28;20207;-77
2021/06/23 06:05:43;;;;;;;2.05;1.20;;;15.90;99.90;;;;;;5067869;28;20238;-77
2021/06/23 06:08:09;;;;;;;1.20;1.10;;;15.90;99.90;;;;;;5067184;28;20186;-76
2021/06/23 06:10:35;;;;;;;1.42;1.20;;;15.90;99.90;;;;;;5068034;28;20209;-76
2021/06/23 06:13:05;;;;;;;1.48;1.35;;;15.90;99.90;;;;;;5049654;28;20548;-77
2021/06/23 06:15:31;;;;;;;4.03;1.60;;;15.90;99.90;;;;;;5068240;28;21572;-77
2021/06/23 06:18:04;;;;;;;3.38;2.00;;;16.00;99.90;;;;;;5066318;28;20255;-76
2021/06/23 06:20:31;;;;;;;1.95;0.90;;;16.00;99.90;;;;;;5067474;28;20254;-77
2021/06/23 06:22:57;;;;;;;1.23;0.90;;;16.10;99.90;;;;;;5066558;28;20185;-78
2021/06/23 06:25:23;;;;;;;1.90;1.20;;;16.00;99.90;;;;;;5043021;28;20185;-76
2021/06/23 06:27:48;;;;;;;3.05;0.90;;;16.10;99.90;;;;;;5048734;28;20205;-77
2021/06/23 06:30:15;;;;;;;1.25;1.10;;;16.10;99.90;;;;;;5049926;28;20201;-77
2021/06/23 06:32:40;;;;;;;2.80;1.10;;;16.20;99.90;;;;;;5067345;28;20216;-76
2021/06/23 06:35:06;;;;;;;0.82;0.82;;;16.30;99.90;;;;;;5066855;28;20240;-78
2021/06/23 06:37:32;;;;;;;2.55;1.23;;;16.20;99.90;;;;;;5051638;28;20182;-79
2021/06/23 06:39:58;;;;;;;1.92;1.38;;;16.00;99.90;;;;;;5039623;28;20197;-78
2021/06/23 06:42:24;;;;;;;1.70;1.10;;;15.80;99.90;;;;;;5069226;28;20248;-80
2021/06/23 06:44:49;;;;;;;2.85;0.93;;;15.80;99.90;;;;;;5070889;28;20178;-78
2021/06/23 06:47:15;;;;;;;2.28;1.00;;;15.80;99.90;;;;;;5062004;28;20181;-78
2021/06/23 06:49:41;;;;;;;0.80;0.80;;;16.00;99.90;;;;;;5069381;28;20209;-78
2021/06/23 06:52:07;;;;;;;1.38;1.05;;;16.10;99.90;;;;;;5068748;28;20264;-78
2021/06/23 06:54:32;;;;;;;1.60;1.30;;;16.30;99.90;;;;;;5067126;28;20209;-77
2021/06/23 06:56:58;;;;;;;2.38;1.38;;;16.40;99.90;;;;;;5067788;28;20191;-78
2021/06/23 06:59:24;;;;;;;2.33;1.17;;;16.30;99.90;;;;;;5067472;28;20212;-78
2021/06/23 07:01:50;;;;;;;3.92;1.38;;;16.10;99.90;;;;;;5068608;28;20174;-78
2021/06/23 07:04:16;;;;;;;0.73;0.73;;;16.10;99.90;;;;;;5044905;28;20177;-78
2021/06/23 07:06:42;;;;;;;2.72;0.90;;;16.10;99.90;;;;;;5068309;28;20196;-78
2021/06/23 07:09:08;;;;;;;2.60;0.90;;;16.10;99.90;;;;;;5066969;28;20220;-78
2021/06/23 07:11:34;;;;;;;1.42;0.85;;;16.10;99.90;;;;;;5048317;28;20221;-78
2021/06/23 07:13:59;;;;;;;2.25;0.90;;;16.20;99.90;;;;;;5042360;28;20219;-77
2021/06/23 07:16:25;;;;;;;1.30;1.20;;;16.50;99.90;;;;;;5049857;28;20670;-78
2021/06/23 07:18:51;;;;;;;3.15;1.08;;;16.60;99.90;;;;;;5067759;28;20719;-78
2021/06/23 07:21:19;;;;;;;3.35;1.08;;;16.90;99.90;;;;;;5066899;28;20177;-78
2021/06/23 07:23:46;;;;;;;4.65;0.93;;;17.10;99.90;;;;;;5067040;28;20387;-77
2021/06/23 07:26:12;;;;;;;4.53;1.38;;;17.20;99.90;;;;;;5049539;28;20182;-78
2021/06/23 07:28:53;;;;;;;3.83;1.83;;;17.20;99.90;;;;;;5064205;28;20650;-78
2021/06/23 07:31:36;;;;;;;2.13;1.02;;;17.30;99.90;;;;;;5067123;28;20182;-78
2021/06/23 07:37:23;;;;;;;3.35;1.35;;;17.10;99.90;;;;;;5061373;28;20210;-78
2021/06/23 07:39:30;;;;;;;0.95;0.95;;;16.80;99.90;;;;;;5053410;28;20244;-78
2021/06/23 07:41:56;;;;;;;3.40;1.15;;;16.80;99.90;;;;;;5065097;28;20189;-77
2021/06/23 07:45:10;;;;;;;2.97;1.08;;;16.80;99.90;;;;;;5065203;28;20201;-78
2021/06/23 07:47:14;;;;;;;1.58;1.15;;;16.90;99.90;;;;;;5046356;28;20193;-79
2021/06/23 07:49:42;;;;;;;5.50;1.33;;;17.10;99.90;;;;;;5063652;28;20201;-77
2021/06/23 07:52:18;;;;;;;1.83;1.00;;;17.20;99.90;;;;;;5064788;28;20655;-78
2021/06/23 08:03:03;;;;;;;1.30;1.20;;;17.20;99.90;;;;;;5066507;28;20319;-79
2021/06/23 08:13:08;;;;;;;1.98;1.27;;;17.50;99.90;;;;;;5065501;28;20556;-77
2021/06/23 08:15:36;;;;;;;4.00;1.30;;;17.50;99.90;;;;;;5065975;28;20201;-78
2021/06/23 08:18:02;;;;;;;3.83;1.92;;;17.70;99.90;;;;;;5063956;28;20739;-79
2021/06/23 08:20:28;;;;;;;2.20;1.27;;;17.90;99.90;;;;;;5066384;28;20201;-78
2021/06/23 08:22:54;;;;;;;1.48;1.10;;;18.00;99.90;;;;;;5066281;28;20658;-79
2021/06/23 08:25:23;;;;;;;1.50;1.40;;;18.20;99.90;;;;;;5066707;28;20181;-79
2021/06/23 08:27:50;;;;;;;3.40;1.85;;;18.30;99.90;;;;;;5066456;28;20185;-77
2021/06/23 08:30:16;;;;;;;1.23;1.13;;;18.30;99.90;;;;;;5066764;28;20220;-79
2021/06/23 08:32:42;;;;;;;2.45;1.20;;;18.40;99.90;;;;;;5066893;28;20170;-79
2021/06/23 08:35:09;;;;;;;0.90;0.90;;;18.40;99.90;;;;;;5049098;28;20319;-77
2021/06/23 08:37:35;;;;;;;4.20;1.48;;;18.50;99.90;;;;;;5048587;28;20960;-79
2021/06/23 08:40:03;;;;;;;1.27;0.90;;;18.60;99.90;;;;;;5066406;28;20201;-79
2021/06/23 08:42:29;;;;;;;2.38;1.35;;;18.70;99.90;;;;;;5066683;28;20213;-78
2021/06/23 08:44:55;;;;;;;2.20;1.15;;;18.90;99.90;;;;;;5065881;28;20185;-79
2021/06/23 08:47:23;;;;;;;2.00;0.95;;;19.00;99.90;;;;;;5035889;28;20188;-78
2021/06/23 08:49:49;;;;;;;2.88;0.85;;;19.30;99.90;;;;;;5070391;28;20243;-78
2021/06/23 08:52:15;;;;;;;2.22;1.17;;;19.00;99.90;;;;;;5070031;28;20182;-79
2021/06/23 08:54:41;;;;;;;2.35;1.42;;;19.00;99.90;;;;;;5070130;28;20963;-79
2021/06/23 08:57:09;;;;;;;2.65;1.10;;;19.10;99.90;;;;;;5069406;28;20241;-76
2021/06/23 08:59:38;;;;;;;4.95;1.90;;;19.30;99.90;;;;;;5046529;28;20620;-77
2021/06/23 09:02:04;;;;;;;2.55;1.45;;;19.30;99.90;;;;;;5069290;28;20205;-79
2021/06/23 09:04:30;;;;;;;1.95;1.13;;;19.50;99.90;;;;;;5070763;28;20635;-79
2021/06/23 09:06:58;;;;;;;3.05;1.23;;;19.50;99.90;;;;;;5044522;28;20669;-79
2021/06/23 09:09:35;;;;;;;2.00;1.30;;;19.70;99.90;;;;;;5069656;28;20246;-79
2021/06/23 09:12:01;;;;;;;1.90;1.20;;;19.60;99.90;;;;;;5051010;28;20189;-77
2021/06/23 09:14:29;;;;;;;3.55;1.30;;;19.30;99.90;;;;;;5070112;28;20557;-79
2021/06/23 09:17:14;;;;;;;1.63;1.25;;;19.00;99.90;;;;;;5040083;28;20196;-78
2021/06/23 09:19:41;;;;;;;1.23;1.13;;;19.10;99.90;;;;;;5069650;28;20216;-77
2021/06/23 09:22:30;;;;;;;1.10;1.00;;;19.20;99.90;;;;;;5069554;28;20177;-79
2021/06/23 09:24:56;;;;;;;2.00;1.40;;;19.40;99.90;;;;;;5070011;28;20224;-78
2021/06/23 09:27:25;;;;;;;1.52;0.93;;;19.70;99.90;;;;;;5066300;28;20209;-77
2021/06/23 09:29:51;;;;;;;1.73;1.58;;;20.00;99.90;;;;;;5066572;28;20201;-77
2021/06/23 09:32:18;;;;;;;1.40;1.08;;;20.10;99.90;;;;;;5037839;28;20590;-77
2021/06/23 09:34:47;;;;;;;2.13;0.95;;;20.10;99.90;;;;;;5048927;28;20264;-76
2021/06/23 09:37:27;;;;;;;2.33;1.45;;;20.00;99.90;;;;;;5067938;28;20177;-77
2021/06/23 09:40:19;;;;;;;2.80;1.38;;;20.40;99.90;;;;;;5066890;28;20197;-78
2021/06/23 09:42:50;;;;;;;1.63;1.48;;;20.30;99.90;;;;;;5067686;28;20231;-78
2021/06/23 09:45:18;;;;;;;2.03;1.35;;;20.30;99.90;;;;;;5067140;28;20196;-77
2021/06/23 09:47:45;;;;;;;3.30;1.13;;;20.20;99.90;;;;;;5066775;28;20648;-77
2021/06/23 09:50:22;;;;;;;2.08;1.20;;;20.30;99.90;;;;;;5066801;28;20224;-78
2021/06/23 09:52:56;;;;;;;1.30;0.93;;;20.50;99.90;;;;;;5065772;28;20193;-77
2021/06/23 09:55:40;;;;;;;2.25;1.40;;;20.90;99.90;;;;;;5065447;28;20205;-78
2021/06/23 09:58:06;;;;;;;2.38;1.15;;;21.00;99.90;;;;;;5063792;28;20173;-77
2021/06/23 10:00:34;;;;;;;2.80;1.00;;;21.30;99.90;;;;;;5065711;28;20197;-77
2021/06/23 10:03:03;;;;;;;3.03;1.55;;;21.50;99.90;;;;;;5064175;28;20303;-76
2021/06/23 10:05:31;;;;;;;2.97;1.67;;;21.50;99.90;;;;;;5046011;28;20641;-77
2021/06/23 10:07:57;;;;;;;4.75;1.77;;;21.40;99.90;;;;;;5063381;28;20281;-77
2021/06/23 10:10:41;;;;;;;1.55;1.35;;;21.20;99.90;;;;;;5046617;28;20300;-78
2021/06/23 10:13:06;;;;;;;3.97;1.45;;;21.20;99.90;;;;;;5065123;28;20186;-77
2021/06/23 10:15:32;;;;;;;2.50;1.40;;;21.40;99.90;;;;;;5065718;28;20205;-77
2021/06/23 10:17:58;;;;;;;2.92;1.50;;;21.80;99.90;;;;;;5064259;28;20612;-75
2021/06/23 10:20:24;;;;;;;1.30;1.20;;;21.60;99.90;;;;;;5064700;28;20209;-77
2021/06/23 10:22:50;;;;;;;2.67;1.30;;;21.70;99.90;;;;;;5064257;28;20177;-78
2021/06/23 10:25:18;;;;;;;2.88;1.10;;;22.00;99.90;;;;;;5064319;28;20527;-75
2021/06/23 10:27:49;;;;;;;2.00;1.48;;;22.20;99.90;;;;;;5065470;28;20521;-78
2021/06/23 10:30:15;;;;;;;2.05;1.65;;;22.30;99.90;;;;;;5047831;28;20197;-77
2021/06/23 10:32:42;;;;;;;3.90;1.70;;;22.20;99.90;;;;;;5065617;28;20739;-77
2021/06/23 10:35:08;;;;;;;1.50;1.40;;;22.30;99.90;;;;;;5065970;28;20209;-78
2021/06/23 10:37:38;;;;;;;3.25;1.98;;;22.30;99.90;;;;;;5065389;28;20651;-78
2021/06/23 10:40:10;;;;;;;2.90;2.05;;;22.00;99.90;;;;;;5036069;28;20202;-78
2021/06/23 10:42:36;;;;;;;3.42;1.60;;;21.90;99.90;;;;;;5064384;28;20185;-77
2021/06/23 10:45:03;;;;;;;1.85;1.40;;;21.70;99.90;;;;;;5064731;28;20632;-77
2021/06/23 10:47:37;;;;;;;1.95;1.42;;;21.90;99.90;;;;;;5064289;28;20560;-77
2021/06/23 10:50:05;;;;;;;4.30;3.80;;;22.10;99.90;;;;;;5064122;28;20211;-76
2021/06/23 10:52:33;;;;;;;5.32;2.75;;;22.30;99.90;;;;;;5064622;28;20562;-75
2021/06/23 10:55:07;;;;;;;2.72;1.60;;;22.50;99.90;;;;;;5046785;28;20751;-77
2021/06/23 10:57:43;;;;;;;2.80;1.90;;;22.30;99.90;;;;;;5064733;28;20181;-76
2021/06/23 11:00:18;;;;;;;10.63;8.90;;;22.60;99.90;;;;;;5064568;28;20210;-77
2021/06/23 11:03:02;;;;;;;6.25;4.03;;;22.90;99.90;;;;;;5047113;28;20181;-77
2021/06/23 11:05:43;;;;;;;4.28;2.50;;;23.00;99.90;;;;;;5064948;28;20174;-77
2021/06/23 11:08:28;;;;;;;2.50;1.80;;;23.00;99.90;;;;;;5046176;28;20192;-76
2021/06/23 11:10:55;;;;;;;1.75;1.40;;;22.80;99.90;;;;;;5064320;28;20201;-76
2021/06/23 11:13:28;;;;;;;2.28;2.08;;;23.10;99.90;;;;;;5065107;28;20173;-77
2021/06/23 11:15:54;;;;;;;2.80;1.75;;;23.00;99.90;;;;;;5063336;28;20197;-77
2021/06/23 11:18:25;;;;;;;2.95;2.03;;;22.10;99.90;;;;;;5036636;28;20231;-78
2021/06/23 11:21:06;;;;;;;6.35;5.22;;;22.10;99.90;;;;;;5045445;28;20193;-78
2021/06/23 11:23:49;;;;;;;2.40;2.20;;;21.90;99.90;;;;;;5064712;28;20188;-78
2021/06/23 11:26:23;;;;;;;4.30;2.00;;;22.10;99.90;;;;;;5050653;28;20181;-77
2021/06/23 11:28:53;;;;;;;6.30;1.52;;;21.80;99.90;;;;;;5050761;28;20184;-77
2021/06/23 11:31:20;;;;;;;1.67;1.40;;;22.10;99.90;;;;;;5069149;28;20178;-77
2021/06/23 11:33:49;;;;;;;3.55;1.65;;;21.90;99.90;;;;;;5069238;28;20184;-77
2021/06/23 11:36:19;;;;;;;4.88;1.63;;;22.00;99.90;;;;;;5050404;28;20177;-77
2021/06/23 11:38:46;;;;;;;3.05;1.90;;;22.30;99.90;;;;;;5068265;28;20177;-77
2021/06/23 11:41:12;;;;;;;5.35;1.85;;;22.50;99.90;;;;;;5050461;28;20178;-78
2021/06/23 11:43:38;;;;;;;2.70;1.80;;;22.70;99.90;;;;;;5069055;28;20220;-78
2021/06/23 11:46:05;;;;;;;3.00;1.45;;;22.90;99.90;;;;;;5065808;28;20614;-78
2021/06/23 11:48:31;;;;;;;4.05;1.70;;;23.20;99.90;;;;;;5066253;28;20189;-78
2021/06/23 11:50:56;;;;;;;2.40;1.45;;;23.00;99.90;;;;;;5068017;28;20228;-80
2021/06/23 11:53:22;;;;;;;2.42;1.40;;;23.30;99.90;;;;;;5065560;28;20178;-78
2021/06/23 11:55:50;;;;;;;3.33;1.88;;;23.80;99.90;;;;;;5067301;28;20205;-78
2021/06/23 11:58:16;;;;;;;2.17;1.98;;;23.70;99.90;;;;;;5067125;28;20200;-80
2021/06/23 12:00:43;;;;;;;2.97;1.88;;;23.70;99.90;;;;;;5067631;28;20242;-78
2021/06/23 12:03:12;;;;;;;2.72;2.20;;;23.60;99.90;;;;;;5049274;28;20549;-80
2021/06/23 12:05:38;;;;;;;3.42;2.03;;;23.60;99.90;;;;;;5067297;28;20178;-78
2021/06/23 12:08:07;;;;;;;4.20;2.03;;;23.50;99.90;;;;;;5067906;28;20268;-78
2021/06/23 12:10:34;;;;;;;2.50;1.85;;;23.40;99.90;;;;;;5067264;28;20569;-78
2021/06/23 12:13:01;;;;;;;2.20;1.90;;;23.10;99.90;;;;;;5066248;28;20211;-79
2021/06/23 12:15:28;;;;;;;2.20;1.95;;;23.40;99.90;;;;;;5039912;28;20197;-80
2021/06/23 12:17:57;;;;;;;2.65;2.00;;;23.40;99.90;;;;;;5048216;28;20169;-79
2021/06/23 12:20:25;;;;;;;3.78;1.77;;;23.10;99.90;;;;;;5057469;28;20354;-79
2021/06/23 12:22:58;;;;;;;4.50;1.92;;;23.00;99.90;;;;;;5048929;28;21221;-80
2021/06/23 12:25:31;;;;;;;4.07;2.40;;;23.40;99.90;;;;;;5064659;28;20174;-78
2021/06/23 12:27:58;;;;;;;2.53;1.70;;;23.50;99.90;;;;;;5066210;28;20562;-81
2021/06/23 12:30:28;;;;;;;2.28;1.85;;;23.50;99.90;;;;;;5050449;28;20212;-82
2021/06/23 12:32:58;;;;;;;2.63;2.25;;;23.90;99.90;;;;;;5066971;28;20180;-78
2021/06/23 12:35:27;;;;;;;3.35;2.35;;;23.80;99.90;;;;;;5066376;28;20200;-78
2021/06/23 12:37:53;;;;;;;2.38;1.83;;;24.10;99.90;;;;;;5066485;28;20677;-78
2021/06/23 12:40:19;;;;;;;2.53;1.67;;;24.40;99.90;;;;;;5066068;28;20233;-79
2021/06/23 12:42:44;;;;;;;3.35;2.05;;;23.90;99.90;;;;;;5055428;28;20174;-77
2021/06/23 12:45:11;;;;;;;1.98;1.75;;;23.70;99.90;;;;;;5066809;28;20549;-76
2021/06/23 12:47:37;;;;;;;2.95;2.28;;;23.90;99.90;;;;;;5048520;28;20269;-78
2021/06/23 12:50:05;;;;;;;2.22;1.67;;;24.20;99.90;;;;;;5048163;28;20224;-78
2021/06/23 12:52:30;;;;;;;2.90;1.85;;;23.70;99.90;;;;;;5066384;28;20906;-78
2021/06/23 12:54:56;;;;;;;3.22;2.08;;;24.00;99.90;;;;;;5066587;28;20205;-77
2021/06/23 12:57:22;;;;;;;2.72;1.90;;;24.30;99.90;;;;;;5066073;28;20177;-78
2021/06/23 12:59:48;;;;;;;3.13;1.90;;;24.70;99.90;;;;;;5065904;28;20208;-77
2021/06/23 13:02:13;;;;;;;3.15;1.77;;;24.70;99.90;;;;;;5066602;28;20213;-77
2021/06/23 13:04:41;;;;;;;3.40;2.38;;;24.90;99.90;;;;;;5048705;28;20240;-76
2021/06/23 13:07:06;;;;;;;3.35;2.33;;;24.60;99.90;;;;;;5067899;28;20178;-79
2021/06/23 13:09:32;;;;;;;2.42;1.92;;;24.70;99.90;;;;;;5067957;28;20258;-78